createdAt,value
2017-10-25T00:00:31.434Z,8.80
2017-10-25T00:02:57.737Z,8.80
2017-10-25T00:05:24.761Z,8.80
2017-10-25T00:07:51.078Z,8.80
2017-10-25T00:10:17.363Z,8.70
2017-10-25T00:12:43.687Z,8.80
2017-10-25T00:15:09.973Z,8.80
2017-10-25T00:17:36.228Z,8.80
2017-10-25T00:20:03.357Z,8.70
2017-10-25T00:22:30.403Z,8.70
2017-10-25T00:24:56.721Z,8.70
2017-10-25T00:27:23.038Z,8.70
2017-10-25T00:29:49.345Z,8.60
2017-10-25T00:32:15.640Z,8.60
2017-10-25T00:34:41.980Z,8.60
2017-10-25T00:37:08.333Z,8.60
2017-10-25T00:39:34.643Z,8.60
2017-10-25T00:42:00.978Z,8.60
2017-10-25T00:44:27.291Z,8.60
2017-10-25T00:46:53.637Z,8.60
2017-10-25T00:49:19.940Z,8.60
2017-10-25T00:51:46.225Z,8.60
2017-10-25T00:54:12.551Z,8.50
2017-10-25T00:56:38.879Z,8.50
2017-10-25T00:59:05.225Z,8.60
2017-10-25T01:01:31.619Z,8.60
2017-10-25T01:03:57.919Z,8.60
2017-10-25T01:06:24.212Z,8.60
2017-10-25T01:08:50.500Z,8.60
2017-10-25T01:11:16.831Z,8.70
2017-10-25T01:13:43.160Z,8.70
2017-10-25T01:16:09.518Z,8.70
2017-10-25T01:18:36.846Z,8.60
2017-10-25T01:21:03.386Z,8.60
2017-10-25T01:23:30.441Z,8.60
2017-10-25T01:25:57.136Z,8.60
2017-10-25T01:28:23.544Z,8.60
2017-10-25T01:30:50.995Z,8.60
2017-10-25T01:33:18.046Z,8.50
2017-10-25T01:35:45.141Z,8.50
2017-10-25T01:38:11.521Z,8.50
2017-10-25T01:40:38.571Z,8.60
2017-10-25T01:43:05.631Z,8.60
2017-10-25T01:45:31.958Z,8.60
2017-10-25T01:47:58.609Z,8.70
2017-10-25T01:50:24.928Z,8.80
2017-10-25T01:52:51.235Z,8.80
2017-10-25T01:55:17.624Z,8.90
2017-10-25T01:57:43.974Z,9.00
2017-10-25T02:00:10.358Z,9.00
2017-10-25T02:02:36.742Z,9.10
2017-10-25T02:05:03.542Z,9.20
2017-10-25T02:07:30.764Z,9.20
2017-10-25T02:09:57.052Z,9.20
2017-10-25T02:12:23.373Z,9.10
2017-10-25T02:14:49.722Z,9.10
2017-10-25T02:17:16.088Z,9.00
2017-10-25T02:19:42.410Z,9.10
2017-10-25T02:22:08.718Z,9.00
2017-10-25T02:24:35.776Z,9.00
2017-10-25T02:27:02.098Z,9.00
2017-10-25T02:29:29.540Z,8.90
2017-10-25T02:31:56.563Z,8.90
2017-10-25T02:34:22.928Z,8.90
2017-10-25T02:36:50.002Z,8.90
2017-10-25T02:39:16.288Z,8.80
2017-10-25T02:41:42.619Z,8.90
2017-10-25T02:44:09.633Z,8.80
2017-10-25T02:46:36.217Z,8.90
2017-10-25T02:49:02.541Z,8.90
2017-10-25T02:51:29.571Z,8.90
2017-10-25T02:53:56.649Z,9.00
2017-10-25T02:56:22.937Z,8.90
2017-10-25T02:58:50.033Z,9.00
2017-10-25T03:01:16.334Z,9.00
2017-10-25T03:03:43.370Z,9.10
2017-10-25T03:06:10.421Z,9.10
2017-10-25T03:08:37.728Z,9.10
2017-10-25T03:11:03.991Z,9.10
2017-10-25T03:13:31.029Z,9.00
2017-10-25T03:15:58.106Z,9.00
2017-10-25T03:18:24.419Z,9.00
2017-10-25T03:20:50.751Z,9.00
2017-10-25T03:23:17.834Z,9.00
2017-10-25T03:25:44.916Z,9.00
2017-10-25T03:28:11.249Z,9.00
2017-10-25T03:30:37.533Z,9.00
2017-10-25T03:33:03.912Z,9.00
2017-10-25T03:35:30.970Z,9.00
2017-10-25T03:37:58.078Z,9.00
2017-10-25T03:40:24.369Z,9.00
2017-10-25T03:42:50.678Z,9.00
2017-10-25T03:45:16.943Z,9.00
2017-10-25T03:47:43.247Z,9.10
2017-10-25T03:50:09.570Z,9.10
2017-10-25T03:52:36.591Z,9.20
2017-10-25T03:55:02.894Z,9.30
2017-10-25T03:57:29.197Z,9.30
2017-10-25T03:59:55.508Z,9.30
2017-10-25T04:02:21.814Z,9.40
2017-10-25T04:04:48.097Z,9.60
2017-10-25T04:07:14.422Z,10.10
2017-10-25T04:09:40.721Z,10.50
2017-10-25T04:12:07.020Z,10.90
2017-10-25T04:14:34.029Z,11.50
2017-10-25T04:17:00.338Z,11.50
2017-10-25T04:19:26.677Z,11.70
2017-10-25T04:21:52.979Z,11.80
2017-10-25T04:24:19.256Z,11.90
2017-10-25T04:26:45.550Z,12.10
2017-10-25T04:29:11.829Z,12.30
2017-10-25T04:31:38.165Z,12.60
2017-10-25T04:34:04.480Z,12.80
2017-10-25T04:36:30.815Z,12.80
2017-10-25T04:38:57.098Z,13.00
2017-10-25T04:41:23.414Z,13.30
2017-10-25T04:43:49.719Z,13.50
2017-10-25T04:46:16.754Z,13.70
2017-10-25T04:48:43.068Z,13.70
2017-10-25T04:51:09.365Z,13.60
2017-10-25T04:53:35.708Z,13.50
2017-10-25T04:56:02.041Z,13.50
2017-10-25T04:58:28.346Z,13.40
2017-10-25T05:00:54.645Z,13.20
2017-10-25T05:03:20.907Z,13.10
2017-10-25T05:05:47.938Z,13.00
2017-10-25T05:08:14.257Z,12.90
2017-10-25T05:10:40.597Z,12.90
2017-10-25T05:13:06.890Z,12.80
2017-10-25T05:15:33.900Z,12.70
2017-10-25T05:18:00.213Z,12.70
2017-10-25T05:20:26.533Z,12.60
2017-10-25T05:22:52.949Z,12.50
2017-10-25T05:25:19.250Z,12.50
2017-10-25T05:27:46.330Z,12.70
2017-10-25T05:30:12.622Z,12.70
2017-10-25T05:32:38.963Z,13.00
2017-10-25T05:35:05.303Z,13.00
2017-10-25T05:37:31.673Z,12.80
2017-10-25T05:39:58.045Z,12.70
2017-10-25T05:42:25.473Z,12.60
2017-10-25T05:44:52.471Z,12.40
2017-10-25T05:47:18.807Z,12.30
2017-10-25T05:49:45.116Z,12.30
2017-10-25T05:52:11.427Z,12.30
2017-10-25T05:54:39.364Z,12.40
2017-10-25T05:57:05.669Z,12.30
2017-10-25T05:59:31.960Z,12.40
2017-10-25T06:01:58.243Z,12.50
2017-10-25T06:04:24.535Z,12.50
2017-10-25T06:06:51.860Z,12.50
2017-10-25T06:09:18.913Z,12.40
2017-10-25T06:11:45.219Z,12.40
2017-10-25T06:14:11.607Z,12.20
2017-10-25T06:16:37.944Z,12.10
2017-10-25T06:19:04.299Z,12.00
2017-10-25T06:21:31.464Z,11.80
2017-10-25T06:23:58.559Z,11.50
2017-10-25T06:26:24.851Z,11.50
2017-10-25T06:28:51.946Z,11.40
2017-10-25T06:31:18.278Z,11.40
2017-10-25T06:33:44.662Z,11.40
2017-10-25T06:36:10.980Z,11.40
2017-10-25T06:38:38.101Z,11.50
2017-10-25T06:41:05.205Z,11.50
2017-10-25T06:43:31.550Z,11.50
2017-10-25T06:45:57.974Z,11.50
2017-10-25T06:48:24.281Z,11.60
2017-10-25T06:50:50.597Z,11.60
2017-10-25T06:53:17.668Z,11.70
2017-10-25T06:55:43.979Z,11.70
2017-10-25T06:58:10.296Z,11.80
2017-10-25T07:00:37.347Z,11.90
2017-10-25T07:03:03.672Z,11.90
2017-10-25T07:05:30.707Z,12.00
2017-10-25T07:07:58.092Z,12.00
2017-10-25T07:10:24.406Z,12.00
2017-10-25T07:12:51.422Z,12.60
2017-10-25T07:15:17.739Z,12.50
2017-10-25T07:17:44.037Z,12.90
2017-10-25T07:20:10.340Z,13.00
2017-10-25T07:22:36.643Z,12.90
2017-10-25T07:25:02.973Z,12.80
2017-10-25T07:27:30.018Z,12.70
2017-10-25T07:29:56.340Z,12.70
2017-10-25T07:32:22.699Z,12.60
2017-10-25T07:34:49.017Z,12.60
2017-10-25T07:37:16.116Z,12.70
2017-10-25T07:39:42.411Z,12.60
2017-10-25T07:42:08.724Z,12.70
2017-10-25T07:44:35.057Z,12.70
2017-10-25T07:47:01.345Z,12.70
2017-10-25T07:49:27.656Z,12.80
2017-10-25T07:51:53.921Z,12.80
2017-10-25T07:54:20.231Z,12.90
2017-10-25T07:56:46.656Z,12.90
2017-10-25T07:59:12.987Z,13.00
2017-10-25T08:01:39.295Z,13.10
2017-10-25T08:04:05.619Z,13.20
2017-10-25T08:06:31.933Z,13.20
2017-10-25T08:08:58.248Z,13.30
2017-10-25T08:11:24.538Z,13.40
2017-10-25T08:13:50.859Z,13.40
2017-10-25T08:16:17.162Z,13.40
2017-10-25T08:18:43.451Z,13.40
2017-10-25T08:21:10.487Z,13.50
2017-10-25T08:23:38.251Z,13.60
2017-10-25T08:26:04.866Z,13.60
2017-10-25T08:28:31.602Z,13.70
2017-10-25T08:30:57.898Z,13.80
2017-10-25T08:33:24.202Z,13.80
2017-10-25T08:35:50.562Z,13.90
2017-10-25T08:38:16.981Z,14.00
2017-10-25T08:40:43.374Z,14.10
2017-10-25T08:43:09.667Z,14.30
2017-10-25T08:45:35.968Z,14.40
2017-10-25T08:48:02.267Z,14.50
2017-10-25T08:50:28.558Z,14.70
2017-10-25T08:52:54.863Z,14.80
2017-10-25T08:55:21.194Z,14.90
2017-10-25T08:57:47.499Z,14.90
2017-10-25T09:00:13.819Z,15.00
2017-10-25T09:02:40.561Z,15.00
2017-10-25T09:05:06.901Z,15.00
2017-10-25T09:07:33.253Z,15.00
2017-10-25T09:09:59.589Z,15.00
2017-10-25T09:12:25.933Z,15.10
2017-10-25T09:14:52.257Z,15.10
2017-10-25T09:17:18.567Z,15.20
2017-10-25T09:19:45.165Z,15.30
2017-10-25T09:22:11.486Z,15.40
2017-10-25T09:24:37.837Z,15.40
2017-10-25T09:27:04.356Z,15.50
2017-10-25T09:29:30.656Z,15.50
2017-10-25T09:31:56.969Z,15.50
2017-10-25T09:34:23.279Z,15.60
2017-10-25T09:36:49.708Z,15.50
2017-10-25T09:39:16.013Z,15.60
2017-10-25T09:41:42.301Z,15.70
2017-10-25T09:44:08.629Z,15.80
2017-10-25T09:46:34.943Z,15.90
2017-10-25T09:49:01.272Z,16.00
2017-10-25T09:51:27.589Z,16.00
2017-10-25T09:53:53.923Z,16.10
2017-10-25T09:56:20.234Z,16.10
2017-10-25T09:58:46.522Z,16.20
2017-10-25T10:01:14.512Z,16.10
2017-10-25T10:03:41.728Z,16.30
2017-10-25T10:06:08.805Z,16.50
2017-10-25T10:08:35.186Z,16.50
2017-10-25T10:11:01.615Z,16.80
2017-10-25T10:13:28.651Z,17.30
2017-10-25T10:15:55.238Z,17.30
2017-10-25T10:18:21.532Z,17.50
2017-10-25T10:20:48.577Z,17.40
2017-10-25T10:23:14.903Z,17.40
2017-10-25T10:25:41.225Z,17.30
2017-10-25T10:28:07.553Z,17.30
2017-10-25T10:30:33.862Z,17.30
2017-10-25T10:33:00.211Z,17.40
2017-10-25T10:35:26.537Z,17.40
2017-10-25T10:37:52.970Z,17.40
2017-10-25T10:40:19.325Z,17.40
2017-10-25T10:42:46.372Z,17.60
2017-10-25T10:45:12.690Z,17.60
2017-10-25T10:47:39.725Z,17.60
2017-10-25T10:50:06.018Z,17.60
2017-10-25T10:52:32.308Z,17.70
2017-10-25T10:54:59.379Z,17.80
2017-10-25T10:57:25.664Z,17.80
2017-10-25T10:59:51.977Z,17.80
2017-10-25T11:02:18.270Z,17.90
2017-10-25T11:04:44.611Z,18.00
2017-10-25T11:07:11.215Z,18.10
2017-10-25T11:09:37.516Z,18.20
2017-10-25T11:12:03.825Z,18.30
2017-10-25T11:14:30.153Z,18.40
2017-10-25T11:16:56.584Z,18.50
2017-10-25T11:19:22.933Z,18.60
2017-10-25T11:21:49.974Z,18.60
2017-10-25T11:24:16.277Z,18.60
2017-10-25T11:26:42.580Z,18.60
2017-10-25T11:29:09.226Z,18.60
2017-10-25T11:31:36.290Z,18.60
2017-10-25T11:34:02.850Z,18.50
2017-10-25T11:36:29.181Z,18.50
2017-10-25T11:38:56.476Z,18.40
2017-10-25T11:41:22.822Z,18.40
2017-10-25T11:43:49.142Z,18.40
2017-10-25T11:46:16.628Z,18.50
2017-10-25T11:48:42.948Z,18.60
2017-10-25T11:51:10.051Z,19.00
2017-10-25T11:53:36.804Z,19.00
2017-10-25T11:56:03.136Z,19.30
2017-10-25T11:58:29.500Z,19.60
2017-10-25T12:00:56.894Z,20.30
2017-10-25T12:03:23.389Z,20.20
2017-10-25T12:05:49.685Z,20.50
2017-10-25T12:08:16.482Z,20.70
2017-10-25T12:10:42.937Z,20.70
2017-10-25T12:13:09.235Z,20.70
2017-10-25T12:15:36.294Z,20.60
2017-10-25T12:18:02.747Z,20.60
2017-10-25T12:20:28.974Z,20.50
2017-10-25T12:22:55.465Z,20.40
2017-10-25T12:25:22.528Z,20.30
2017-10-25T12:27:48.831Z,20.30
2017-10-25T12:30:15.488Z,20.10
2017-10-25T12:32:42.500Z,20.00
2017-10-25T12:35:08.946Z,20.00
2017-10-25T12:37:35.350Z,20.10
2017-10-25T12:40:01.628Z,20.10
2017-10-25T12:42:28.141Z,20.00
2017-10-25T12:44:55.810Z,19.70
2017-10-25T12:47:22.153Z,19.70
2017-10-25T12:49:48.594Z,19.60
2017-10-25T12:52:14.942Z,19.60
2017-10-25T12:54:41.280Z,19.60
2017-10-25T12:57:07.581Z,19.60
2017-10-25T12:59:33.899Z,19.60
2017-10-25T13:02:00.193Z,19.60
2017-10-25T13:04:26.491Z,19.50
2017-10-25T13:06:52.792Z,19.50
2017-10-25T13:09:19.124Z,19.40
2017-10-25T13:12:07.073Z,19.30
2017-10-25T13:15:11.559Z,19.20
2017-10-25T13:17:45.706Z,19.20
2017-10-25T13:20:12.003Z,19.20
2017-10-25T13:22:39.036Z,19.10
2017-10-25T13:25:06.091Z,19.20
2017-10-25T13:27:33.127Z,19.20
2017-10-25T13:29:59.448Z,19.10
2017-10-25T13:32:25.850Z,19.10
2017-10-25T13:34:52.170Z,19.10
2017-10-25T13:37:18.582Z,19.00
2017-10-25T13:39:44.903Z,19.00
2017-10-25T13:42:11.266Z,18.90
2017-10-25T13:44:37.572Z,18.90
2017-10-25T13:47:04.152Z,19.00
2017-10-25T13:49:31.596Z,19.00
2017-10-25T13:51:57.920Z,18.90
2017-10-25T13:54:24.274Z,18.90
2017-10-25T13:56:50.584Z,18.90
2017-10-25T13:59:16.965Z,18.80
2017-10-25T14:01:43.621Z,18.80
2017-10-25T14:04:09.936Z,18.80
2017-10-25T14:06:36.231Z,18.80
2017-10-25T14:09:03.348Z,19.10
2017-10-25T14:11:29.656Z,19.00
2017-10-25T14:13:55.946Z,19.20
2017-10-25T14:16:23.002Z,19.60
2017-10-25T14:18:49.323Z,19.60
2017-10-25T14:21:16.416Z,19.90
2017-10-25T14:23:42.743Z,19.80
2017-10-25T14:26:09.182Z,19.90
2017-10-25T14:28:48.016Z,20.00
2017-10-25T14:31:14.314Z,20.00
2017-10-25T14:33:40.642Z,20.10
2017-10-25T14:36:06.983Z,20.30
2017-10-25T14:38:33.715Z,20.50
2017-10-25T14:41:00.429Z,20.60
2017-10-25T14:43:26.747Z,20.90
2017-10-25T14:45:53.858Z,21.20
2017-10-25T14:48:20.158Z,21.10
2017-10-25T14:50:46.495Z,21.10
2017-10-25T14:53:12.771Z,20.90
2017-10-25T14:55:40.090Z,20.40
2017-10-25T14:58:06.400Z,20.40
2017-10-25T15:00:32.757Z,20.20
2017-10-25T15:02:59.073Z,19.90
2017-10-25T15:05:25.421Z,19.60
2017-10-25T15:07:51.719Z,19.40
2017-10-25T15:10:18.022Z,19.30
2017-10-25T15:12:45.079Z,19.00
2017-10-25T15:15:11.396Z,18.90
2017-10-25T15:17:37.684Z,18.80
2017-10-25T15:20:03.998Z,18.70
2017-10-25T15:22:30.322Z,18.50
2017-10-25T15:24:56.626Z,18.40
2017-10-25T15:27:23.356Z,18.20
2017-10-25T15:29:49.703Z,18.00
2017-10-25T15:32:16.017Z,17.80
2017-10-25T15:34:42.994Z,17.60
2017-10-25T15:37:09.438Z,17.40
2017-10-25T15:39:35.754Z,17.20
2017-10-25T15:42:02.055Z,17.10
2017-10-25T15:44:28.367Z,16.90
2017-10-25T15:46:54.738Z,16.80
2017-10-25T15:49:21.040Z,16.60
2017-10-25T15:51:47.368Z,16.40
2017-10-25T15:54:13.732Z,16.20
2017-10-25T15:56:39.989Z,16.00
2017-10-25T15:59:07.048Z,15.70
2017-10-25T16:01:33.367Z,15.70
2017-10-25T16:03:59.699Z,15.50
2017-10-25T16:06:26.021Z,15.40
2017-10-25T16:08:52.355Z,15.20
2017-10-25T16:11:18.730Z,15.10
2017-10-25T16:14:02.724Z,14.90
2017-10-25T16:16:29.826Z,14.70
2017-10-25T16:18:56.121Z,14.60
2017-10-25T16:21:22.478Z,14.50
2017-10-25T16:26:48.476Z,14.40
2017-10-25T16:29:14.785Z,14.20
2017-10-25T16:31:41.855Z,14.00
2017-10-25T16:34:08.151Z,14.00
2017-10-25T16:36:35.367Z,13.80
2017-10-25T16:39:01.765Z,13.80
2017-10-25T16:41:28.180Z,13.70
2017-10-25T16:43:54.593Z,13.70
2017-10-25T16:46:21.662Z,13.50
2017-10-25T16:48:48.024Z,13.50
2017-10-25T16:51:14.364Z,13.50
2017-10-25T16:53:40.668Z,13.40
2017-10-25T16:56:07.068Z,13.30
2017-10-25T16:58:34.139Z,13.20
2017-10-25T17:01:01.221Z,13.10
2017-10-25T17:03:27.551Z,13.10
2017-10-25T17:05:53.887Z,13.10
2017-10-25T17:08:20.229Z,13.00
2017-10-25T17:10:47.302Z,12.90
2017-10-25T17:13:13.605Z,12.80
2017-10-25T17:15:39.918Z,12.80
2017-10-25T17:18:06.219Z,12.80
2017-10-25T17:20:32.592Z,12.70
2017-10-25T17:22:58.933Z,12.60
2017-10-25T17:25:26.038Z,12.50
2017-10-25T17:27:52.444Z,12.50
2017-10-25T17:30:18.763Z,12.50
2017-10-25T17:32:45.126Z,12.40
2017-10-25T17:35:11.489Z,12.40
2017-10-25T17:37:38.634Z,12.30
2017-10-25T17:40:04.941Z,12.20
2017-10-25T17:42:31.354Z,12.20
2017-10-25T17:57:10.361Z,12.00
2017-10-25T17:59:37.416Z,12.00
2017-10-25T18:02:04.875Z,12.00
2017-10-25T18:04:31.154Z,12.00
2017-10-25T18:06:57.476Z,12.00
2017-10-25T18:09:25.945Z,11.90
2017-10-25T18:11:53.517Z,11.90
2017-10-25T18:14:19.843Z,11.90
2017-10-25T18:16:46.216Z,11.90
2017-10-25T18:19:12.519Z,11.80
2017-10-25T18:21:39.631Z,11.80
2017-10-25T18:24:06.299Z,11.80
2017-10-25T18:26:32.689Z,11.70
2017-10-25T18:28:59.044Z,11.70
2017-10-25T18:31:26.098Z,11.60
2017-10-25T18:33:53.143Z,11.60
2017-10-25T18:36:20.248Z,11.60
2017-10-25T18:38:46.656Z,11.60
2017-10-25T18:41:13.023Z,11.60
2017-10-25T18:43:39.346Z,11.60
2017-10-25T18:46:05.647Z,11.50
2017-10-25T18:48:31.967Z,11.50
2017-10-25T18:50:58.281Z,11.50
2017-10-25T18:53:24.566Z,11.50
2017-10-25T18:55:50.885Z,11.50
2017-10-25T18:58:17.244Z,11.50
2017-10-25T19:00:43.606Z,11.50
2017-10-25T19:03:09.980Z,11.50
2017-10-25T19:05:36.306Z,11.50
2017-10-25T19:08:02.655Z,11.50
2017-10-25T19:10:28.979Z,11.50
2017-10-25T19:12:55.342Z,11.50
2017-10-25T19:15:22.404Z,11.40
2017-10-25T19:17:49.581Z,11.40
2017-10-25T19:20:15.963Z,11.40
2017-10-25T19:22:42.298Z,11.40
2017-10-25T19:25:09.367Z,11.30
2017-10-25T19:27:36.414Z,11.30
2017-10-25T19:30:03.482Z,11.30
2017-10-25T19:32:29.777Z,11.30
2017-10-25T19:34:56.100Z,11.20
2017-10-25T19:37:23.134Z,11.20
2017-10-25T19:39:49.465Z,11.20
2017-10-25T19:42:15.787Z,11.20
2017-10-25T19:44:42.148Z,11.20
2017-10-25T19:47:09.200Z,11.20
2017-10-25T19:49:36.278Z,11.20
2017-10-25T19:52:02.609Z,11.10
2017-10-25T19:54:29.006Z,11.10
2017-10-25T19:56:56.081Z,11.10
2017-10-25T19:59:22.351Z,11.00
2017-10-25T20:01:48.642Z,11.00
2017-10-25T20:04:14.938Z,11.00
2017-10-25T20:06:41.255Z,10.90
2017-10-25T20:09:08.309Z,10.90
2017-10-25T20:11:34.627Z,10.80
2017-10-25T20:14:00.928Z,10.80
2017-10-25T20:16:27.233Z,10.80
2017-10-25T20:18:53.536Z,10.80
2017-10-25T20:21:20.588Z,10.80
2017-10-25T20:23:47.666Z,10.80
2017-10-25T20:26:13.975Z,10.80
2017-10-25T20:28:40.327Z,10.80
2017-10-25T20:31:06.664Z,10.70
2017-10-25T20:33:32.959Z,10.70
2017-10-25T20:36:00.003Z,10.70
2017-10-25T20:38:27.019Z,10.60
2017-10-25T20:40:53.322Z,10.60
2017-10-25T20:43:20.663Z,10.60
2017-10-25T20:45:46.926Z,10.60
2017-10-25T20:48:13.212Z,10.60
2017-10-25T20:50:39.570Z,10.50
2017-10-25T20:53:05.843Z,10.50
2017-10-25T20:55:32.115Z,10.50
2017-10-25T20:57:58.387Z,10.50
2017-10-25T21:00:24.669Z,10.50
2017-10-25T21:02:50.968Z,10.50
2017-10-25T21:05:17.987Z,10.50
2017-10-25T21:07:44.250Z,10.40
2017-10-25T21:10:11.557Z,10.40
2017-10-25T21:12:37.807Z,10.40
2017-10-25T21:15:04.088Z,10.40
2017-10-25T21:17:30.368Z,10.40
2017-10-25T21:19:56.617Z,10.40
2017-10-25T21:22:23.637Z,10.40
2017-10-25T21:24:49.894Z,10.30
2017-10-25T21:27:16.897Z,10.30
2017-10-25T21:29:43.161Z,10.30
2017-10-25T21:32:10.181Z,10.30
2017-10-25T21:34:36.566Z,10.30
2017-10-25T21:37:02.876Z,10.30
2017-10-25T21:39:29.942Z,10.30
2017-10-25T21:41:56.210Z,10.30
2017-10-25T21:44:22.477Z,10.30
2017-10-25T21:46:48.747Z,10.30
2017-10-25T21:49:15.030Z,10.20
2017-10-25T21:51:41.277Z,10.20
2017-10-25T21:54:08.281Z,10.20
2017-10-25T21:56:34.542Z,10.20
2017-10-25T21:59:00.808Z,10.20
2017-10-25T22:01:27.055Z,10.20
2017-10-25T22:03:53.329Z,10.20
2017-10-25T22:06:20.354Z,10.20
2017-10-25T22:08:46.888Z,10.20
2017-10-25T22:11:13.138Z,10.20
2017-10-25T22:13:40.113Z,10.10
2017-10-25T22:16:06.359Z,10.10
2017-10-25T22:18:32.618Z,10.10
2017-10-25T22:20:58.866Z,10.10
2017-10-25T22:23:25.728Z,10.10
2017-10-25T22:25:52.749Z,10.10
2017-10-25T22:28:18.994Z,10.10
2017-10-25T22:30:45.995Z,10.10
2017-10-25T22:33:12.269Z,10.00
2017-10-25T22:35:39.621Z,10.10
2017-10-25T22:38:06.608Z,10.00
2017-10-25T22:40:32.865Z,10.00
2017-10-25T22:42:59.239Z,10.00
2017-10-25T22:45:25.548Z,10.00
2017-10-25T22:47:51.795Z,10.00
2017-10-25T22:50:18.770Z,10.00
2017-10-25T22:52:45.033Z,10.00
2017-10-25T22:55:11.283Z,10.00
2017-10-25T22:57:38.286Z,10.00
2017-10-25T23:00:04.561Z,10.00
2017-10-25T23:02:30.867Z,10.00
2017-10-25T23:04:57.108Z,9.90
2017-10-25T23:07:23.385Z,9.90
2017-10-25T23:09:49.664Z,10.00
2017-10-25T23:12:15.925Z,9.90
2017-10-25T23:14:42.205Z,10.00
2017-10-25T23:17:08.459Z,10.00
2017-10-25T23:19:34.716Z,9.90
2017-10-25T23:22:00.949Z,9.90
2017-10-25T23:24:27.237Z,9.90
2017-10-25T23:26:53.483Z,9.90
2017-10-25T23:29:20.472Z,9.90
2017-10-25T23:31:46.704Z,9.90
2017-10-25T23:34:12.954Z,9.90
2017-10-25T23:36:39.202Z,9.80
2017-10-25T23:39:05.448Z,9.80
2017-10-25T23:41:32.418Z,9.70
2017-10-25T23:43:58.651Z,9.70
2017-10-25T23:46:24.912Z,9.70
2017-10-25T23:48:51.186Z,9.60
2017-10-25T23:51:18.193Z,9.60
2017-10-25T23:53:44.426Z,9.60
2017-10-25T23:56:10.680Z,9.60
2017-10-25T23:58:37.664Z,9.50
